createdAt,value
2022-11-10T00:00:34.698Z,1.80
2022-11-10T00:03:21.253Z,1.42
2022-11-10T00:06:09.801Z,1.50
2022-11-10T00:08:55.815Z,1.75
2022-11-10T00:11:42.470Z,1.70
2022-11-10T00:14:46.115Z,1.85
2022-11-10T00:17:32.620Z,1.50
2022-11-10T00:20:18.851Z,1.75
2022-11-10T00:23:06.571Z,1.48
2022-11-10T00:25:52.787Z,1.45
2022-11-10T00:28:39.088Z,1.48
2022-11-10T00:31:25.377Z,1.80
2022-11-10T00:34:12.702Z,1.60
2022-11-10T00:36:58.997Z,1.63
2022-11-10T00:39:46.404Z,1.80
2022-11-10T00:42:32.631Z,1.60
2022-11-10T00:45:18.601Z,1.88
2022-11-10T00:48:05.186Z,1.70
2022-11-10T00:50:51.579Z,1.95
2022-11-10T00:53:37.584Z,1.27
2022-11-10T00:56:25.759Z,1.92
2022-11-10T00:59:12.165Z,1.67
2022-11-10T01:01:58.097Z,1.60
2022-11-10T01:04:44.258Z,1.85
2022-11-10T01:07:30.679Z,1.48
2022-11-10T01:10:17.279Z,1.60
2022-11-10T01:13:04.734Z,1.45
2022-11-10T01:15:51.172Z,1.50
2022-11-10T01:18:37.439Z,1.23
2022-11-10T01:21:24.118Z,1.70
2022-11-10T01:24:10.223Z,1.30
2022-11-10T01:26:56.764Z,1.30
2022-11-10T01:29:44.358Z,1.85
2022-11-10T01:32:30.418Z,1.30
2022-11-10T01:35:16.335Z,1.60
2022-11-10T01:38:02.689Z,1.30
2022-11-10T01:40:49.226Z,1.63
2022-11-10T01:43:35.554Z,1.42
2022-11-10T01:46:22.897Z,1.40
2022-11-10T01:49:09.746Z,1.60
2022-11-10T01:51:57.066Z,1.52
2022-11-10T01:54:44.203Z,1.75
2022-11-10T01:57:30.485Z,1.73
2022-11-10T02:00:17.481Z,1.40
2022-11-10T02:03:08.412Z,0.82
2022-11-10T02:05:54.924Z,1.50
2022-11-10T02:08:42.122Z,1.60
2022-11-10T02:11:28.644Z,1.92
2022-11-10T02:14:16.016Z,1.10
2022-11-10T02:17:02.084Z,0.90
2022-11-10T02:19:49.361Z,1.80
2022-11-10T02:22:37.477Z,1.40
2022-11-10T02:25:24.213Z,1.50
2022-11-10T02:28:10.564Z,1.70
2022-11-10T02:30:56.500Z,1.52
2022-11-10T02:33:43.067Z,1.27
2022-11-10T02:36:29.047Z,1.17
2022-11-10T02:39:17.098Z,0.95
2022-11-10T02:42:03.120Z,1.33
2022-11-10T02:44:49.068Z,1.38
2022-11-10T02:47:35.414Z,1.17
2022-11-10T02:50:21.604Z,1.20
2022-11-10T02:53:08.039Z,1.20
2022-11-10T02:55:55.732Z,1.55
2022-11-10T02:58:41.720Z,1.50
2022-11-10T03:01:27.862Z,1.42
2022-11-10T03:04:14.255Z,1.80
2022-11-10T03:07:00.580Z,1.50
2022-11-10T03:09:46.751Z,1.90
2022-11-10T03:12:34.249Z,1.52
2022-11-10T03:15:20.203Z,2.17
2022-11-10T03:18:06.711Z,1.88
2022-11-10T03:20:53.004Z,2.15
2022-11-10T03:23:39.264Z,1.67
2022-11-10T03:26:25.618Z,1.42
2022-11-10T03:29:13.098Z,1.58
2022-11-10T03:31:59.303Z,1.73
2022-11-10T03:34:45.385Z,1.60
2022-11-10T03:37:31.757Z,1.70
2022-11-10T03:40:17.857Z,1.40
2022-11-10T03:43:04.165Z,1.40
2022-11-10T03:45:51.766Z,1.42
2022-11-10T03:48:38.111Z,1.23
2022-11-10T03:51:24.118Z,1.58
2022-11-10T03:54:10.510Z,1.13
2022-11-10T03:56:56.835Z,1.83
2022-11-10T03:59:43.266Z,1.08
2022-11-10T04:02:30.915Z,1.42
2022-11-10T04:05:34.604Z,0.70
2022-11-10T04:08:38.787Z,1.50
2022-11-10T04:11:42.773Z,1.88
2022-11-10T04:14:46.440Z,1.40
2022-11-10T04:17:34.041Z,1.70
2022-11-10T04:20:20.080Z,1.52
2022-11-10T04:23:24.280Z,1.15
2022-11-10T04:26:29.468Z,1.40
2022-11-10T04:29:16.183Z,1.38
2022-11-10T04:32:02.293Z,0.95
2022-11-10T04:34:50.032Z,2.00
2022-11-10T04:37:36.202Z,1.60
2022-11-10T04:40:22.359Z,1.05
2022-11-10T04:43:08.723Z,1.98
2022-11-10T04:45:54.873Z,1.58
2022-11-10T04:48:41.094Z,1.60
2022-11-10T04:51:29.984Z,0.80
2022-11-10T04:54:15.887Z,1.60
2022-11-10T04:57:01.890Z,1.10
2022-11-10T04:59:48.259Z,1.65
2022-11-10T05:02:39.238Z,1.50
2022-11-10T05:05:25.624Z,1.70
2022-11-10T05:08:13.114Z,1.90
2022-11-10T05:10:59.583Z,0.68
2022-11-10T05:13:46.318Z,1.67
2022-11-10T05:16:32.395Z,1.90
2022-11-10T05:19:18.330Z,1.55
2022-11-10T05:22:04.567Z,1.30
2022-11-10T05:24:52.312Z,1.30
2022-11-10T05:27:38.654Z,1.33
2022-11-10T05:30:24.563Z,1.15
2022-11-10T05:33:11.195Z,1.90
2022-11-10T05:35:57.464Z,1.38
2022-11-10T05:38:43.968Z,1.70
2022-11-10T05:41:31.753Z,1.30
2022-11-10T05:44:18.067Z,1.58
2022-11-10T05:47:04.047Z,1.92
2022-11-10T05:49:50.370Z,1.50
2022-11-10T05:52:36.892Z,1.70
2022-11-10T05:55:23.567Z,1.40
2022-11-10T05:58:10.964Z,1.35
2022-11-10T06:00:57.482Z,1.15
2022-11-10T06:03:43.628Z,1.50
2022-11-10T06:06:29.697Z,1.55
2022-11-10T06:09:15.756Z,1.70
2022-11-10T06:12:03.428Z,1.60
2022-11-10T06:14:51.053Z,1.30
2022-11-10T06:17:38.251Z,1.95
2022-11-10T06:20:24.985Z,1.45
2022-11-10T06:23:11.903Z,1.80
2022-11-10T06:25:58.229Z,1.90
2022-11-10T06:28:44.269Z,1.88
2022-11-10T06:31:32.032Z,1.70
2022-11-10T06:34:18.261Z,2.05
2022-11-10T06:37:04.330Z,1.98
2022-11-10T06:39:50.496Z,2.25
2022-11-10T06:42:36.738Z,2.33
2022-11-10T06:45:23.171Z,3.00
2022-11-10T06:48:13.284Z,2.88
2022-11-10T06:51:01.180Z,3.13
2022-11-10T06:53:47.507Z,2.08
2022-11-10T06:56:33.564Z,2.78
2022-11-10T06:59:19.870Z,2.88
2022-11-10T07:02:05.777Z,3.17
2022-11-10T07:04:53.482Z,2.80
2022-11-10T07:07:39.836Z,3.10
2022-11-10T07:10:25.888Z,2.90
2022-11-10T07:13:12.387Z,3.85
2022-11-10T07:15:58.401Z,3.03
2022-11-10T07:18:44.654Z,3.13
2022-11-10T07:21:32.047Z,2.90
2022-11-10T07:24:18.477Z,2.67
2022-11-10T07:27:04.756Z,2.72
2022-11-10T07:29:51.204Z,2.67
2022-11-10T07:32:37.484Z,3.50
2022-11-10T07:35:23.384Z,2.75
2022-11-10T07:38:12.129Z,2.30
2022-11-10T07:40:58.462Z,2.78
2022-11-10T07:43:44.430Z,1.90
2022-11-10T07:46:30.704Z,2.35
2022-11-10T07:49:16.912Z,2.80
2022-11-10T07:52:03.190Z,2.47
2022-11-10T07:54:50.937Z,1.95
2022-11-10T07:57:37.237Z,2.42
2022-11-10T08:00:23.432Z,2.40
2022-11-10T08:03:11.907Z,2.25
2022-11-10T08:05:58.132Z,1.88
2022-11-10T08:08:44.197Z,1.70
2022-11-10T08:11:31.835Z,1.38
2022-11-10T08:14:17.989Z,1.52
2022-11-10T08:17:03.979Z,1.17
2022-11-10T08:19:50.370Z,1.98
2022-11-10T08:22:36.551Z,2.45
2022-11-10T08:25:22.905Z,2.35
2022-11-10T08:28:10.894Z,0.88
2022-11-10T08:31:01.485Z,1.60
2022-11-10T08:33:50.433Z,1.05
2022-11-10T08:36:38.036Z,1.73
2022-11-10T08:39:38.214Z,1.88
2022-11-10T08:42:25.348Z,1.42
2022-11-10T08:45:12.893Z,1.20
2022-11-10T08:48:00.087Z,1.77
2022-11-10T08:50:46.480Z,1.75
2022-11-10T08:53:32.776Z,0.98
2022-11-10T08:56:18.766Z,2.20
2022-11-10T08:59:05.016Z,1.33
2022-11-10T09:01:52.515Z,1.25
2022-11-10T09:04:38.881Z,1.20
2022-11-10T09:07:25.036Z,1.20
2022-11-10T09:10:11.369Z,1.67
2022-11-10T09:12:59.896Z,0.63
2022-11-10T09:15:46.314Z,1.17
2022-11-10T09:18:34.326Z,0.40
2022-11-10T09:21:20.353Z,0.90
2022-11-10T09:24:06.851Z,1.90
2022-11-10T09:26:52.940Z,0.60
2022-11-10T09:29:39.173Z,0.88
2022-11-10T09:32:25.191Z,0.40
2022-11-10T09:35:13.184Z,1.13
2022-11-10T09:37:59.484Z,0.50
2022-11-10T09:40:52.739Z,0.68
2022-11-10T09:43:43.673Z,0.80
2022-11-10T09:46:32.105Z,1.27
2022-11-10T09:49:25.962Z,1.13
2022-11-10T09:52:14.312Z,0.43
2022-11-10T09:55:03.288Z,0.50
2022-11-10T09:57:50.236Z,0.70
2022-11-10T10:00:36.712Z,0.80
2022-11-10T10:03:25.192Z,1.27
2022-11-10T10:06:12.483Z,0.73
2022-11-10T10:09:04.920Z,0.60
2022-11-10T10:11:55.241Z,1.08
2022-11-10T10:14:46.500Z,0.52
2022-11-10T10:17:41.443Z,1.05
2022-11-10T10:20:33.047Z,0.93
2022-11-10T10:23:40.375Z,1.25
2022-11-10T10:26:34.499Z,1.08
2022-11-10T10:29:22.852Z,0.40
2022-11-10T10:32:12.292Z,1.05
2022-11-10T10:34:58.618Z,0.68
2022-11-10T10:37:45.936Z,0.55
2022-11-10T10:40:32.083Z,0.52
2022-11-10T10:43:19.565Z,0.55
2022-11-10T10:46:07.667Z,0.80
2022-11-10T10:49:28.604Z,0.47
2022-11-10T10:52:14.607Z,0.30
2022-11-10T10:55:01.747Z,0.65
2022-11-10T10:57:51.751Z,0.47
2022-11-10T11:00:45.016Z,1.30
2022-11-10T11:03:38.239Z,1.30
2022-11-10T11:06:27.170Z,0.68
2022-11-10T11:09:17.210Z,1.38
2022-11-10T11:12:04.679Z,0.50
2022-11-10T11:14:50.651Z,0.55
2022-11-10T11:17:38.239Z,0.80
2022-11-10T11:20:28.304Z,1.10
2022-11-10T11:23:22.775Z,1.02
2022-11-10T11:26:11.016Z,0.32
2022-11-10T11:29:03.275Z,1.20
2022-11-10T11:31:56.173Z,0.63
2022-11-10T11:34:49.020Z,0.98
2022-11-10T11:37:40.648Z,0.30
2022-11-10T11:40:29.055Z,0.90
2022-11-10T11:43:24.663Z,1.02
2022-11-10T11:46:17.753Z,0.98
2022-11-10T11:49:10.261Z,0.55
2022-11-10T11:52:02.828Z,0.73
2022-11-10T11:54:55.943Z,0.47
2022-11-10T11:57:47.055Z,0.50
2022-11-10T12:00:41.279Z,1.10
2022-11-10T12:03:34.188Z,0.77
2022-11-10T12:06:28.955Z,0.85
2022-11-10T12:09:22.504Z,0.98
2022-11-10T12:12:15.177Z,0.70
2022-11-10T12:15:04.667Z,0.25
2022-11-10T12:17:53.566Z,0.93
2022-11-10T12:20:45.297Z,1.10
2022-11-10T12:23:34.476Z,0.63
2022-11-10T12:26:27.235Z,1.00
2022-11-10T12:29:17.344Z,0.77
2022-11-10T12:32:06.118Z,0.88
2022-11-10T12:34:54.789Z,0.80
2022-11-10T12:37:43.722Z,0.60
2022-11-10T12:40:33.058Z,0.43
2022-11-10T12:43:25.068Z,0.70
2022-11-10T12:46:14.057Z,0.43
2022-11-10T12:49:06.248Z,0.90
2022-11-10T12:51:55.779Z,0.25
2022-11-10T12:54:42.691Z,0.40
2022-11-10T12:57:30.711Z,0.60
2022-11-10T13:00:28.959Z,0.75
2022-11-10T13:03:16.577Z,0.80
2022-11-10T13:06:03.087Z,1.25
2022-11-10T13:08:50.735Z,0.90
2022-11-10T13:11:37.478Z,0.50
2022-11-10T13:14:25.457Z,0.65
2022-11-10T13:17:33.647Z,0.40
2022-11-10T13:20:38.474Z,0.35
2022-11-10T13:23:25.637Z,0.40
2022-11-10T13:26:12.241Z,0.65
2022-11-10T13:28:59.385Z,0.38
2022-11-10T13:31:55.383Z,0.63
2022-11-10T13:34:43.414Z,1.30
2022-11-10T13:37:50.635Z,0.70
2022-11-10T13:40:39.359Z,0.65
2022-11-10T13:43:26.758Z,0.50
2022-11-10T13:46:12.923Z,0.50
2022-11-10T13:49:11.589Z,0.65
2022-11-10T13:52:07.170Z,1.15
2022-11-10T13:54:58.375Z,1.10
2022-11-10T13:57:55.895Z,0.93
2022-11-10T14:00:42.190Z,0.38
2022-11-10T14:03:47.504Z,0.75
2022-11-10T14:06:41.962Z,0.22
2022-11-10T14:09:33.426Z,1.27
2022-11-10T14:12:23.135Z,0.80
2022-11-10T14:15:14.226Z,0.73
2022-11-10T14:18:00.952Z,0.98
2022-11-10T14:20:47.915Z,1.23
2022-11-10T14:23:35.775Z,0.80
2022-11-10T14:26:25.572Z,0.10
2022-11-10T14:29:29.101Z,0.60
2022-11-10T14:32:17.624Z,0.55
2022-11-10T14:35:03.745Z,1.13
2022-11-10T14:37:49.733Z,1.00
2022-11-10T14:40:35.664Z,0.55
2022-11-10T14:43:30.392Z,0.70
2022-11-10T14:46:16.431Z,1.10
2022-11-10T14:49:03.368Z,1.10
2022-11-10T14:51:49.867Z,1.33
2022-11-10T14:54:36.497Z,1.40
2022-11-10T14:57:22.599Z,1.13
2022-11-10T15:00:14.352Z,1.10
2022-11-10T15:03:01.410Z,1.15
2022-11-10T15:05:48.146Z,0.60
2022-11-10T15:08:34.629Z,0.82
2022-11-10T15:11:36.693Z,1.20
2022-11-10T15:14:31.854Z,0.75
2022-11-10T15:17:20.116Z,0.50
2022-11-10T15:20:07.675Z,0.80
2022-11-10T15:22:53.573Z,0.47
2022-11-10T15:25:41.463Z,0.80
2022-11-10T15:28:31.631Z,1.45
2022-11-10T15:31:22.935Z,0.90
2022-11-10T15:34:23.932Z,1.25
2022-11-10T15:37:12.739Z,0.80
2022-11-10T15:40:13.560Z,1.20
2022-11-10T15:43:08.839Z,1.30
2022-11-10T15:45:56.640Z,0.90
2022-11-10T15:48:43.544Z,1.38
2022-11-10T15:51:29.818Z,0.73
2022-11-10T15:54:19.173Z,1.50
2022-11-10T15:57:10.589Z,1.23
2022-11-10T15:59:56.631Z,0.65
2022-11-10T16:02:43.093Z,0.77
2022-11-10T16:05:29.075Z,1.30
2022-11-10T16:08:15.876Z,1.40
2022-11-10T16:11:03.240Z,1.42
2022-11-10T16:13:49.847Z,1.20
2022-11-10T16:16:35.971Z,1.35
2022-11-10T16:19:21.946Z,1.42
2022-11-10T16:22:10.455Z,1.30
2022-11-10T16:24:56.549Z,1.60
2022-11-10T16:27:43.812Z,1.40
2022-11-10T16:30:30.200Z,1.55
2022-11-10T16:33:16.978Z,1.63
2022-11-10T16:36:03.265Z,1.58
2022-11-10T16:38:49.626Z,1.65
2022-11-10T16:41:36.060Z,1.65
2022-11-10T16:44:25.269Z,1.27
2022-11-10T16:47:14.712Z,1.50
2022-11-10T16:50:00.803Z,1.88
2022-11-10T16:52:47.266Z,1.58
2022-11-10T16:55:33.483Z,1.33
2022-11-10T16:58:19.965Z,1.65
2022-11-10T17:01:11.406Z,1.10
2022-11-10T17:03:59.259Z,1.35
2022-11-10T17:06:45.305Z,2.10
2022-11-10T17:09:31.647Z,1.38
2022-11-10T17:12:17.999Z,1.67
2022-11-10T17:15:04.416Z,1.75
2022-11-10T17:17:54.580Z,1.58
2022-11-10T17:20:41.507Z,1.35
2022-11-10T17:23:28.084Z,1.25
2022-11-10T17:26:15.615Z,1.77
2022-11-10T17:29:01.945Z,2.42
2022-11-10T17:31:50.095Z,0.35
2022-11-10T17:34:37.419Z,0.70
2022-11-10T17:37:23.553Z,0.50
2022-11-10T17:40:16.755Z,0.50
